Flight Track Log - Related Links

Times and Time Zones

All times are in EST time to prevent confusion due to time zone crossing. See the DAL6231 flight status page for this flight to view local times or setup timezone preferences in your user account.

Time Position Orientation Groundspeed Altitude Reporting Facility
EST Latitude Longitude Course Direction KTS MPH feet Rate Location/Type
Sun 11:20:49 AM 40.8167 -73.9000 229° Southwest 187 215 2,700  Level New York TRACON
Sun 11:21:55 AM 40.8833 -73.9500 330° Northwest 242 278 5,900 3,050 Climbing New York TRACON
Sun 11:22:49 AM 40.9167 -74.0167 304° West 258 297 8,800 3,421 Climbing New York TRACON
Sun 11:23:49 AM 40.8667 -74.0833 225° Southwest 250 288 12,400 2,900 Climbing New York TRACON
Sun 11:24:49 AM 40.8333 -74.1667 242° Southwest 287 330 14,600 1,225 Climbing New York TRACON
Sun 11:26:00 AM 40.4688 -74.4436 229° Southwest  Level Estimated
Sun 11:27:00 AM 40.7272 -74.3803 237° Southwest 319 367 16,300  Level New York Center
Sun 11:27:58 AM 40.6786 -74.4733 235° Southwest 331 381 17,000 1,008 Climbing New York Center
Sun 11:28:59 AM 40.6275 -74.5744 236° Southwest 344 396 18,300 1,835 Climbing New York Center
Sun 11:29:59 AM 40.5675 -74.6833 234° Southwest 338 389 20,700 2,168 Climbing New York Center
Sun 11:30:58 AM 40.5081 -74.7781 230° Southwest 338 389 22,600 1,850 Climbing New York Center
Sun 11:31:59 AM 40.4467 -74.8700 229° Southwest 338 389 24,400 1,686 Climbing New York Center
Sun 11:32:59 AM 40.3850 -74.9644 229° Southwest 343 395 26,000 1,311 Climbing New York Center
Sun 11:33:58 AM 40.3231 -75.0614 230° Southwest 343 395 27,000 555 Climbing New York Center
Sun 11:34:58 AM 40.2547 -75.1658 229° Southwest 357 411 27,100 750 Climbing New York Center
Sun 11:35:58 AM 40.1883 -75.2703 230° Southwest 370 426 28,500 1,289 Climbing New York Center
Sun 11:36:59 AM 40.1283 -75.3642 230° Southwest 380 437 29,700 750 Climbing New York Center
Sun 11:37:58 AM 40.0594 -75.4681 229° Southwest 385 443 30,000 150 Climbing New York Center
Sun 11:38:59 AM 39.9886 -75.5719 228° Southwest 385 443 30,000 -303 Level New York Center
Sun 11:39:57 AM 39.9197 -75.6753 229° Southwest 385 443 29,400 -1,017 Descending New York Center
Sun 11:40:57 AM 39.8528 -75.7789 230° Southwest 390 449 28,000 -1,388 Descending New York Center
Sun 11:41:58 AM 39.7878 -75.8850 231° Southwest 390 449 26,600 -1,388 Descending New York Center
Sun 11:42:58 AM 39.7208 -75.9881 230° Southwest 385 443 25,200 -1,412 Descending New York Center
Sun 11:43:57 AM 39.6578 -76.0939 232° Southwest 385 443 23,800 -914 Descending New York Center
Sun 11:46:28 AM 39.4861 -76.3525 229° Southwest 387 445 22,000 -512 Descending Washington Center
Sun 11:47:28 AM 39.4189 -76.4567 230° Southwest 381 438 22,000  Level Washington Center
Sun 11:48:28 AM 39.3514 -76.5631 231° Southwest 381 438 22,000  Level Washington Center
Sun 11:49:21 AM 39.2833 -76.6667 230° Southwest 377 434 22,000  Level Potomac TRACON
Sun 11:50:27 AM 39.2167 -76.7667 229° Southwest 372 428 22,000  Level Potomac TRACON
Sun 11:51:28 AM 39.1500 -76.8833 234° Southwest 374 430 22,000 -50 Level Potomac TRACON
Sun 11:52:28 AM 39.0833 -76.9833 229° Southwest 377 434 21,900 -450 Descending Potomac TRACON
Sun 11:53:28 AM 39.0000 -77.0833 223° Southwest 390 449 21,100 -1,200 Descending Potomac TRACON
Sun 11:54:28 AM 38.9333 -77.1667 224° Southwest 398 458 19,500 -1,650 Descending Potomac TRACON
Sun 11:55:28 AM 38.8500 -77.2667 223° Southwest 376 433 17,800 -1,632 Descending Potomac TRACON
Sun 11:56:22 AM 38.7833 -77.3333 218° Southwest 366 421 16,400 -1,587 Descending Potomac TRACON
Sun 11:57:29 AM 38.7000 -77.4333 223° Southwest 339 390 14,600 -1,654 Descending Potomac TRACON
Sun 11:58:29 AM 38.6500 -77.5333 237° Southwest 339 390 12,900 -1,526 Descending Potomac TRACON
Sun 11:59:23 AM 38.6000 -77.6167 233° Southwest 307 353 11,700 -1,304 Descending Potomac TRACON
Sun 12:00:24 PM 38.5500 -77.7000 233° Southwest 246 283 10,400 -1,381 Descending Potomac TRACON
Sun 12:01:29 PM 38.5167 -77.7833 243° Southwest 247 284 8,800 -1,152 Descending Potomac TRACON
Sun 12:02:29 PM 38.4833 -77.8500 237° Southwest 250 288 8,000 -470 Descending Potomac TRACON
Sun 12:03:24 PM 38.4333 -77.9167 226° Southwest 250 288 7,900 -52 Descending Potomac TRACON
Sun 12:04:24 PM 38.4000 -77.9833 237° Southwest 242 278 7,900 50 Level Potomac TRACON
Sun 12:05:24 PM 38.3667 -78.0500 237° Southwest 241 277 8,000 -750 Climbing Potomac TRACON
Sun 12:06:24 PM 38.3333 -78.1167 238° Southwest 232 267 6,400 -1,550 Descending Potomac TRACON
Sun 12:07:24 PM 38.3000 -78.1833 238° Southwest 223 257 4,900 -1,400 Descending Potomac TRACON
Sun 12:08:24 PM 38.2667 -78.2667 243° Southwest 227 261 3,600 -991 Descending Potomac TRACON
Sun 12:09:19 PM 38.2500 -78.3333 252° West 215 247 3,000 -368 Descending Potomac TRACON
Sun 12:10:18 PM 38.2333 -78.4000 252° West 197 227 2,900 -650 Descending Potomac TRACON
Sun 12:11:19 PM 38.1833 -78.4333 208° Southwest 165 190 1,700 -1,041 Descending Potomac TRACON
Sun 12:12:19 PM 38.1500 -78.4500 201° Southwest 137 158 800 -500 Descending Potomac TRACON
Sun 12:13:19 PM 38.1167 -78.4667 201° Southwest 134 154 700 -100 Descending Potomac TRACON
Sun 12:15:00 PM 38.1333 -78.4500 38° Northeast  Level FlightAware Approximate
Sun 12:22:00 PM 38.1396 -78.4523 38° Northeast  Level Estimated
Sun 12:23:00 PM 38.1333 -78.4500 38° Northeast  Level FlightAware Approximate
Sun 12:24:00 PM 38.1396 -78.4523 38° Northeast  Level Estimated
Sun 12:25:00 PM 38.1333 -78.4500 38° Northeast  Level FlightAware Approximate
Sun 12:26:00 PM 38.1396 -78.4523 38° Northeast  Level Estimated
Sun 12:27:00 PM 38.1333 -78.4500 38° Northeast  Level FlightAware Approximate
Sun 12:28:00 PM 38.1396 -78.4523 38° Northeast  Level Estimated
Sun 12:29:00 PM 38.1333 -78.4500 38° Northeast  Level FlightAware Approximate

Login

Don't have an account? Register now (free) for customized features, flight alerts, and more!